EPWA/WAW METAR and TAF weather

Enter ICAO airport designator
Station Type Date Time Source
EPWA METAR 2021/04/13 08:00 UTC NOAA

EPWA 130800Z 32011KT 9999 -RA BKN007 02/02 Q1024 TEMPO RASN BKN005


Station Type Date Time Source
EPWA Decoded METAR 2021/04/13 08:00 UTC NOAA

Warszawa-Okecie, Poland (EPWA) 52-10N 020-58E 107M
Apr 13, 2021 - 04:00 AM EDT / 2021.04.13 0800 UTC
Wind: from the NW (320 degrees) at 13 MPH (11 KT):0
Visibility: greater than 7 mile(s):0
Sky conditions: mostly cloudy
Weather: light rain
Temperature: 35 F (2 C)
Windchill: 26 F (-3 C):1
Dew Point: 35 F (2 C)
Relative Humidity: 100%
Pressure (altimeter): 30.24 in. Hg (1024 hPa)
ob: EPWA 130800Z 32011KT 9999 -RA BKN007 02/02 Q1024 TEMPO RASN BKN005
cycle: 8

Station Type Date Time Source
EPWA TAF 2021/04/13 06:33 UTC NOAA

TAF EPWA 130530Z 1306/1406 32012KT 9999 -RA BKN012
TEMPO 1306/1309 4000 RASN BKN006
BECMG 1309/1312 BKN030
BECMG 1314/1316 VRB02KT
BECMG 1400/1403 35010KT

Example: see airport list